Du har inga inställningar för hoppväder.nu

Hoppväder.nu

Senast uppdaterat 23:42

UTC-tid

2019-10-20 kl. 21:42


Sol och måne

Solen går upp 8:15 och går ner 18:15 (beräknade cirkatider)
Nästa fullmåne blir om 23 dagar (2019-11-12)

METAR

ESNZ (Åre/Östersunds)
(22 minuter sedan)
ESNZ 202120Z AUTO 15005KT 9999 SCT008/// OVC041/// M01/M02 Q1014=















TAF

ESNZ (Åre/Östersunds)
(72 minuter sedan)
ESNZ 202030Z 2021/2023 10007KT 9999 BKN045=





Kodnycklar till TAF och METAR






LHP

(Östersund är område C2a i Sydvästra delen)





Spotting

Hur fungerar spotthjälpen och Vindkartan?

Markvind är ca 0 m/s.



Vindkartan

Senast uppdaterad 23:42




All data kommer från LFV.se